Time;durP1;ratioP1;P1;durP2;ratioP2;P2;SDS_P1;SDS_P2;PMS_P1;PMS_P2;Temp;Humidity;BMP_temperature;BMP_pressure;BME280_temperature;BME280_humidity;BME280_pressure;Samples;Min_cycle;Max_cycle;Signal;HPM_P1;HPM_P2
2024/02/28 00:00:45;;;;;;;24.80;16.30;;;10.10;79.30;;;;;;5001394;28;20050;-60
2024/02/28 00:03:11;;;;;;;25.65;15.75;;;10.10;79.30;;;;;;5007868;28;20030;-61
2024/02/28 00:05:36;;;;;;;28.17;17.40;;;10.10;79.30;;;;;;5006598;28;20030;-63
2024/02/28 00:08:02;;;;;;;25.08;16.02;;;10.10;80.10;;;;;;5005987;28;20129;-61
2024/02/28 00:10:28;;;;;;;25.55;16.52;;;10.10;79.30;;;;;;5009097;28;20038;-61
2024/02/28 00:12:53;;;;;;;27.08;16.95;;;10.10;79.30;;;;;;5005791;28;20030;-62
2024/02/28 00:15:19;;;;;;;22.08;15.32;;;10.10;79.30;;;;;;5000879;28;20375;-61
2024/02/28 00:17:44;;;;;;;27.30;17.90;;;10.00;79.30;;;;;;5008730;28;20044;-60
2024/02/28 00:20:11;;;;;;;26.90;17.67;;;10.00;79.30;;;;;;5004410;28;20403;-61
2024/02/28 00:22:37;;;;;;;25.40;17.65;;;10.00;79.10;;;;;;4999587;28;20601;-61
2024/02/28 00:25:05;;;;;;;27.58;17.92;;;10.00;79.30;;;;;;5005217;28;20120;-62
2024/02/28 00:27:30;;;;;;;28.15;18.38;;;10.00;79.40;;;;;;5006163;28;20042;-62
2024/02/28 00:29:56;;;;;;;28.38;18.17;;;10.00;79.40;;;;;;5002664;28;20085;-62
2024/02/28 00:32:21;;;;;;;26.63;17.35;;;9.90;79.30;;;;;;5008319;28;20034;-62
2024/02/28 00:34:47;;;;;;;27.98;18.38;;;10.00;79.40;;;;;;5006147;28;20509;-62
2024/02/28 00:37:12;;;;;;;26.80;17.83;;;10.00;79.40;;;;;;5000644;28;20042;-62
2024/02/28 00:39:38;;;;;;;28.58;18.30;;;10.00;79.40;;;;;;5005145;28;20068;-61
2024/02/28 00:42:03;;;;;;;28.90;17.95;;;10.00;80.30;;;;;;5001009;28;20442;-61
2024/02/28 00:44:29;;;;;;;26.83;18.02;;;10.00;79.60;;;;;;5000230;28;20042;-63
2024/02/28 00:46:54;;;;;;;28.80;18.50;;;10.00;79.40;;;;;;5001574;28;20073;-63
2024/02/28 00:49:20;;;;;;;27.08;17.83;;;10.00;80.20;;;;;;5004291;28;21868;-62
2024/02/28 00:51:46;;;;;;;27.40;18.80;;;10.00;79.40;;;;;;5002908;28;20049;-62
2024/02/28 00:54:12;;;;;;;28.05;17.88;;;10.00;79.50;;;;;;5005442;28;20409;-61
2024/02/28 00:56:38;;;;;;;27.90;18.10;;;10.00;79.50;;;;;;5000777;28;20467;-62
2024/02/28 00:59:03;;;;;;;28.35;18.52;;;10.00;80.30;;;;;;5006735;28;20105;-62
2024/02/28 01:01:29;;;;;;;29.75;18.90;;;9.90;79.40;;;;;;5005396;28;20049;-61
2024/02/28 01:03:54;;;;;;;28.83;18.50;;;9.90;79.40;;;;;;5004606;28;20034;-61
2024/02/28 01:06:20;;;;;;;30.60;18.27;;;9.90;79.40;;;;;;5003857;28;20121;-62
2024/02/28 01:08:45;;;;;;;29.08;18.48;;;9.90;79.50;;;;;;5010252;28;20026;-62
2024/02/28 01:11:11;;;;;;;29.83;18.75;;;9.80;79.50;;;;;;5001315;28;20040;-61
2024/02/28 01:13:37;;;;;;;32.85;18.77;;;9.80;79.60;;;;;;5005206;28;20053;-61
2024/02/28 01:16:02;;;;;;;28.75;18.83;;;9.80;79.60;;;;;;5009773;28;20034;-60
2024/02/28 01:18:30;;;;;;;27.13;18.55;;;9.80;79.60;;;;;;5001695;28;20037;-62
2024/02/28 01:20:56;;;;;;;27.15;17.80;;;9.80;79.70;;;;;;5004013;28;20058;-62
2024/02/28 01:23:21;;;;;;;28.80;18.50;;;9.80;79.80;;;;;;5001122;28;20124;-61
2024/02/28 01:25:47;;;;;;;25.63;17.70;;;9.80;80.00;;;;;;4999468;28;20085;-61
2024/02/28 01:28:13;;;;;;;27.55;17.60;;;9.80;79.90;;;;;;5003054;28;20041;-61
2024/02/28 01:30:38;;;;;;;26.20;17.70;;;9.80;80.00;;;;;;5009230;28;20034;-62
2024/02/28 01:33:04;;;;;;;26.98;17.40;;;9.80;80.00;;;;;;5005099;28;20497;-62
2024/02/28 01:35:30;;;;;;;29.92;18.23;;;9.80;80.10;;;;;;5003579;28;20084;-61
2024/02/28 01:37:55;;;;;;;27.63;17.90;;;9.70;80.00;;;;;;5006287;28;20317;-60
2024/02/28 01:40:21;;;;;;;27.95;18.30;;;9.80;80.00;;;;;;5009632;28;20516;-61
2024/02/28 01:42:47;;;;;;;28.92;18.33;;;9.80;80.00;;;;;;5007894;28;20049;-61
2024/02/28 01:45:14;;;;;;;26.95;17.63;;;9.80;80.00;;;;;;5000671;28;20022;-62
2024/02/28 01:47:43;;;;;;;29.42;18.38;;;9.80;80.10;;;;;;5010616;28;20040;-61
2024/02/28 01:50:12;;;;;;;27.52;17.55;;;9.80;80.10;;;;;;5000863;28;20058;-63
2024/02/28 01:52:39;;;;;;;29.55;17.90;;;9.70;80.20;;;;;;4997213;28;20510;-62
2024/02/28 01:55:06;;;;;;;29.60;19.05;;;9.80;80.10;;;;;;4999460;28;20155;-60
2024/02/28 01:57:33;;;;;;;26.80;17.88;;;9.70;80.00;;;;;;5004896;28;20096;-62
2024/02/28 01:59:58;;;;;;;26.98;17.88;;;9.80;80.00;;;;;;5004045;28;20044;-63
2024/02/28 02:02:24;;;;;;;28.88;18.45;;;9.80;80.10;;;;;;5005670;28;20501;-62
2024/02/28 02:04:52;;;;;;;30.10;18.08;;;9.80;80.10;;;;;;5004151;28;20042;-62
2024/02/28 02:07:18;;;;;;;28.48;18.30;;;9.80;80.10;;;;;;5006445;28;20532;-62
2024/02/28 02:09:44;;;;;;;27.70;18.52;;;9.80;80.30;;;;;;5002630;28;20057;-62
2024/02/28 02:12:10;;;;;;;29.33;18.95;;;9.70;80.20;;;;;;5006355;28;20084;-61
2024/02/28 02:14:35;;;;;;;30.55;19.15;;;9.80;80.20;;;;;;5002534;28;20080;-61
2024/02/28 02:17:01;;;;;;;30.85;19.33;;;9.80;80.10;;;;;;5001392;28;20029;-62
2024/02/28 02:19:27;;;;;;;30.67;19.38;;;9.80;80.30;;;;;;5007830;28;20044;-60
2024/02/28 02:21:57;;;;;;;29.75;20.10;;;9.80;80.20;;;;;;5007482;28;20088;-61
2024/02/28 02:24:22;;;;;;;29.52;19.35;;;9.70;80.10;;;;;;5000127;28;20397;-60
2024/02/28 02:26:51;;;;;;;29.88;19.38;;;9.80;80.10;;;;;;5002836;28;20041;-61
2024/02/28 02:29:16;;;;;;;32.25;19.38;;;9.70;80.10;;;;;;4997745;28;20026;-63
2024/02/28 02:31:42;;;;;;;30.02;19.15;;;9.70;80.10;;;;;;5003541;28;20501;-61
2024/02/28 02:34:08;;;;;;;31.33;18.58;;;9.70;80.10;;;;;;4999464;28;20088;-62
2024/02/28 02:36:33;;;;;;;31.38;18.45;;;9.70;80.10;;;;;;5001263;28;20037;-62
2024/02/28 02:38:59;;;;;;;32.00;19.15;;;9.70;80.00;;;;;;5003456;28;20048;-60
2024/02/28 02:41:25;;;;;;;30.02;20.20;;;9.70;80.00;;;;;;5002223;28;20030;-62
2024/02/28 02:43:50;;;;;;;30.98;19.65;;;9.70;80.00;;;;;;5002072;28;20030;-62
2024/02/28 02:46:16;;;;;;;29.40;18.50;;;9.70;80.10;;;;;;5002017;28;20030;-62
2024/02/28 02:48:41;;;;;;;31.75;19.70;;;9.70;80.10;;;;;;5000868;28;20030;-63
2024/02/28 02:51:07;;;;;;;29.10;18.33;;;9.60;80.20;;;;;;5002323;28;20765;-62
2024/02/28 02:53:32;;;;;;;28.38;18.88;;;9.60;80.10;;;;;;5003912;28;20041;-60
2024/02/28 02:55:58;;;;;;;31.40;19.55;;;9.60;80.10;;;;;;4997599;28;20042;-62
2024/02/28 02:58:24;;;;;;;31.80;20.00;;;9.60;80.20;;;;;;4999251;28;20517;-62
2024/02/28 03:00:49;;;;;;;32.00;19.73;;;9.60;80.30;;;;;;5000184;28;20038;-62
2024/02/28 03:03:15;;;;;;;32.40;19.83;;;9.60;80.30;;;;;;4999947;28;20321;-62
2024/02/28 03:05:40;;;;;;;30.70;19.10;;;9.70;80.30;;;;;;4999290;28;20613;-62
2024/02/28 03:08:06;;;;;;;30.05;19.58;;;9.60;80.30;;;;;;5002860;28;20049;-61
2024/02/28 03:10:32;;;;;;;31.90;20.38;;;9.60;80.40;;;;;;4998605;28;20576;-61
2024/02/28 03:12:57;;;;;;;33.28;20.67;;;9.60;80.40;;;;;;5000715;28;20046;-61
2024/02/28 03:15:23;;;;;;;32.10;20.67;;;9.60;80.50;;;;;;4997185;28;20038;-61
2024/02/28 03:17:48;;;;;;;34.30;19.67;;;9.60;80.50;;;;;;4999449;28;20051;-60
2024/02/28 03:20:14;;;;;;;30.48;19.85;;;9.60;80.50;;;;;;4999580;28;20398;-62
2024/02/28 03:22:40;;;;;;;36.08;21.65;;;9.60;80.50;;;;;;4999045;28;20117;-61
2024/02/28 03:25:06;;;;;;;34.50;20.85;;;9.50;80.30;;;;;;5000364;28;20394;-62
2024/02/28 03:27:32;;;;;;;34.53;21.42;;;9.50;80.40;;;;;;4998647;28;20131;-63
2024/02/28 03:29:57;;;;;;;36.20;21.58;;;9.60;80.40;;;;;;4998957;28;20041;-60
2024/02/28 03:32:23;;;;;;;36.15;21.83;;;9.50;80.30;;;;;;4997439;28;20042;-62
2024/02/28 03:34:49;;;;;;;37.03;22.88;;;9.50;80.40;;;;;;5005047;28;20034;-61
2024/02/28 03:37:14;;;;;;;38.60;21.60;;;9.50;80.50;;;;;;5009608;28;20056;-61
2024/02/28 03:39:40;;;;;;;37.78;22.23;;;9.40;80.40;;;;;;5010546;28;20034;-62
2024/02/28 03:42:06;;;;;;;35.33;21.83;;;9.40;80.50;;;;;;5006779;28;20034;-62
2024/02/28 03:44:31;;;;;;;34.58;21.73;;;9.40;80.60;;;;;;5009992;28;20052;-62
2024/02/28 03:46:57;;;;;;;34.75;21.35;;;9.40;80.60;;;;;;5010253;28;20058;-63
2024/02/28 03:49:22;;;;;;;35.80;20.88;;;9.40;80.80;;;;;;5007273;28;20037;-61
2024/02/28 03:51:48;;;;;;;36.95;21.98;;;9.40;80.80;;;;;;5008079;28;20509;-62
2024/02/28 03:54:13;;;;;;;36.17;21.75;;;9.30;80.80;;;;;;5009725;28;20034;-63
2024/02/28 03:56:39;;;;;;;34.28;21.30;;;9.30;80.80;;;;;;5010432;28;20030;-62
2024/02/28 03:59:05;;;;;;;33.35;20.17;;;9.30;80.80;;;;;;5004383;28;20034;-59
2024/02/28 04:01:30;;;;;;;35.83;21.33;;;9.30;80.80;;;;;;5003954;28;20084;-61
2024/02/28 04:03:56;;;;;;;38.22;22.65;;;9.30;80.90;;;;;;5008430;28;20037;-62
2024/02/28 04:06:22;;;;;;;36.28;21.52;;;9.40;81.00;;;;;;5010625;28;20398;-62
2024/02/28 04:08:47;;;;;;;32.67;20.58;;;9.30;81.00;;;;;;5006445;28;20037;-62
2024/02/28 04:11:13;;;;;;;36.45;21.63;;;9.30;81.10;;;;;;5006313;28;20513;-63
2024/02/28 04:13:39;;;;;;;35.78;21.20;;;9.30;81.10;;;;;;5008565;28;20070;-62
2024/02/28 04:16:05;;;;;;;38.65;22.35;;;9.30;81.20;;;;;;5003301;28;20037;-61
2024/02/28 04:18:31;;;;;;;37.83;22.55;;;9.30;81.10;;;;;;5010476;28;20038;-61
2024/02/28 04:20:56;;;;;;;32.50;21.77;;;9.30;81.10;;;;;;5008058;28;20117;-63
2024/02/28 04:23:22;;;;;;;34.45;22.13;;;9.30;81.20;;;;;;5007272;28;20037;-61
2024/02/28 04:25:47;;;;;;;35.58;21.95;;;9.30;81.20;;;;;;5006697;28;20726;-61
2024/02/28 04:28:13;;;;;;;35.47;21.90;;;9.30;81.30;;;;;;5006374;28;21683;-61
2024/02/28 04:30:39;;;;;;;37.58;21.98;;;9.20;81.30;;;;;;5007568;28;20026;-62
2024/02/28 04:33:04;;;;;;;37.95;22.67;;;9.20;81.20;;;;;;5006811;28;20041;-61
2024/02/28 04:35:30;;;;;;;37.60;21.92;;;9.20;81.30;;;;;;5006962;28;20037;-61
2024/02/28 04:37:56;;;;;;;35.17;21.83;;;9.20;81.30;;;;;;5009619;28;20038;-61
2024/02/28 04:40:21;;;;;;;36.65;22.02;;;9.20;81.30;;;;;;5005722;28;20036;-61
2024/02/28 04:42:47;;;;;;;38.90;23.05;;;9.20;81.30;;;;;;5004165;28;20068;-62
2024/02/28 04:45:16;;;;;;;37.63;22.80;;;9.20;81.30;;;;;;5001944;28;20044;-62
2024/02/28 04:47:44;;;;;;;37.70;22.48;;;9.20;81.30;;;;;;5003735;28;20038;-62
2024/02/28 04:50:10;;;;;;;37.17;22.48;;;9.20;81.30;;;;;;5001459;28;20038;-61
2024/02/28 04:52:55;;;;;;;39.28;22.83;;;9.20;81.30;;;;;;5002980;28;20505;-62
2024/02/28 04:55:21;;;;;;;37.55;21.25;;;9.20;81.30;;;;;;5009891;28;20402;-62
2024/02/28 04:57:47;;;;;;;37.05;22.15;;;9.20;81.30;;;;;;5003628;28;20093;-62
2024/02/28 05:00:12;;;;;;;37.90;22.65;;;9.10;81.40;;;;;;5002487;28;20072;-60
2024/02/28 05:02:38;;;;;;;37.30;21.83;;;9.10;81.50;;;;;;5001438;28;20144;-62
2024/02/28 05:05:04;;;;;;;35.80;21.10;;;9.10;81.50;;;;;;5005547;28;20570;-61
2024/02/28 05:07:30;;;;;;;38.17;22.67;;;9.20;81.60;;;;;;5002904;28;20054;-62
2024/02/28 05:09:55;;;;;;;38.47;22.98;;;9.10;81.60;;;;;;5005141;28;20042;-60
2024/02/28 05:12:21;;;;;;;36.78;22.20;;;9.10;81.50;;;;;;5005253;28;20321;-61
2024/02/28 05:14:46;;;;;;;36.70;21.30;;;9.20;81.50;;;;;;5002470;28;20568;-59
2024/02/28 05:17:13;;;;;;;39.40;22.20;;;9.20;81.50;;;;;;5003737;28;20118;-62
2024/02/28 05:19:39;;;;;;;39.47;23.73;;;9.20;81.40;;;;;;4998312;28;20067;-63
2024/02/28 05:22:04;;;;;;;40.10;23.80;;;9.20;81.40;;;;;;5002259;28;20058;-62
2024/02/28 05:24:30;;;;;;;38.10;23.02;;;9.20;81.40;;;;;;5007027;28;20517;-62
2024/02/28 05:26:56;;;;;;;34.90;21.25;;;9.20;81.50;;;;;;5002894;28;20123;-62
2024/02/28 05:29:21;;;;;;;36.33;21.88;;;9.20;81.50;;;;;;5008017;28;20563;-62
2024/02/28 05:31:47;;;;;;;39.45;22.10;;;9.20;81.50;;;;;;5008351;28;20077;-62
2024/02/28 05:34:12;;;;;;;40.03;22.50;;;9.20;81.50;;;;;;5008734;28;20092;-62
2024/02/28 05:36:40;;;;;;;36.03;22.17;;;9.20;81.50;;;;;;5005726;28;20030;-62
2024/02/28 05:39:08;;;;;;;37.13;22.63;;;9.20;81.50;;;;;;5007664;28;20050;-62
2024/02/28 05:41:33;;;;;;;37.00;22.67;;;9.20;81.50;;;;;;5006444;28;20026;-61
2024/02/28 05:43:59;;;;;;;40.17;22.27;;;9.20;81.50;;;;;;5009063;28;20034;-62
2024/02/28 05:46:24;;;;;;;36.55;21.77;;;9.20;81.50;;;;;;5006043;28;20110;-61
2024/02/28 05:48:50;;;;;;;38.10;22.60;;;9.10;81.30;;;;;;5008066;28;20053;-61
2024/02/28 05:51:16;;;;;;;37.83;22.42;;;9.20;81.50;;;;;;5008922;28;20034;-62
2024/02/28 05:53:42;;;;;;;38.10;21.92;;;9.20;81.40;;;;;;5007891;28;20105;-63
2024/02/28 05:56:15;;;;;;;36.45;21.95;;;9.10;81.30;;;;;;5009006;28;20126;-61
2024/02/28 05:58:41;;;;;;;37.53;21.83;;;9.10;81.30;;;;;;5008089;28;20078;-59
2024/02/28 06:01:08;;;;;;;36.85;21.73;;;9.10;81.20;;;;;;5008876;28;20561;-62
2024/02/28 06:03:34;;;;;;;36.95;22.00;;;9.10;81.20;;;;;;5007942;28;20048;-61
2024/02/28 06:05:59;;;;;;;34.50;21.25;;;9.10;81.20;;;;;;5008099;28;20038;-62
2024/02/28 06:08:25;;;;;;;36.75;21.10;;;9.10;81.10;;;;;;5008228;28;20045;-60
2024/02/28 06:10:52;;;;;;;34.75;20.77;;;9.10;81.10;;;;;;5008011;28;20065;-63
2024/02/28 06:13:18;;;;;;;34.00;20.85;;;9.10;81.10;;;;;;5008506;28;20030;-61
2024/02/28 06:15:43;;;;;;;37.88;21.73;;;9.10;81.10;;;;;;5008422;28;20033;-63
2024/02/28 06:18:09;;;;;;;36.05;21.48;;;9.10;81.00;;;;;;5005581;28;20576;-60
2024/02/28 06:20:35;;;;;;;36.42;21.50;;;9.10;81.00;;;;;;5008025;28;20113;-63
2024/02/28 06:23:00;;;;;;;37.28;21.38;;;9.10;81.20;;;;;;5007891;28;20064;-62
2024/02/28 06:25:28;;;;;;;35.03;21.58;;;9.10;81.10;;;;;;5005031;28;20042;-62
2024/02/28 06:27:53;;;;;;;34.38;20.42;;;9.10;81.20;;;;;;5005614;28;20049;-62
2024/02/28 06:30:19;;;;;;;39.28;22.58;;;9.00;81.10;;;;;;5008718;28;20030;-62
2024/02/28 06:32:45;;;;;;;38.58;22.48;;;9.10;81.00;;;;;;5007753;28;20497;-62
2024/02/28 06:35:10;;;;;;;35.08;21.48;;;9.00;80.80;;;;;;5005702;28;20501;-62
2024/02/28 06:37:36;;;;;;;36.28;20.88;;;9.00;80.80;;;;;;5003902;28;20042;-62
2024/02/28 06:40:08;;;;;;;36.20;21.13;;;9.00;81.00;;;;;;5006144;28;20030;-60
2024/02/28 06:42:36;;;;;;;35.60;21.10;;;9.00;81.20;;;;;;5007754;28;20497;-62
2024/02/28 06:45:02;;;;;;;36.38;21.55;;;9.00;81.20;;;;;;5006849;28;20038;-61
2024/02/28 06:47:28;;;;;;;36.45;20.63;;;8.90;81.20;;;;;;5007379;28;20065;-61
2024/02/28 06:49:53;;;;;;;35.60;21.02;;;9.00;81.30;;;;;;5007345;28;20505;-61
2024/02/28 06:52:19;;;;;;;36.92;21.60;;;9.00;81.40;;;;;;5006682;28;20030;-61
2024/02/28 06:54:44;;;;;;;36.28;22.20;;;9.00;81.50;;;;;;5000933;28;20132;-62
2024/02/28 06:57:11;;;;;;;35.83;20.80;;;9.00;81.50;;;;;;5006030;28;20409;-60
2024/02/28 06:59:37;;;;;;;38.42;22.33;;;9.00;81.50;;;;;;5002869;28;20306;-60
2024/02/28 07:02:02;;;;;;;38.72;22.45;;;9.00;81.50;;;;;;5007856;28;20041;-60
2024/02/28 07:04:28;;;;;;;38.00;22.35;;;9.00;81.50;;;;;;5006201;28;20038;-63
2024/02/28 07:06:53;;;;;;;40.53;23.52;;;9.00;81.50;;;;;;5004881;28;20141;-62
2024/02/28 07:09:19;;;;;;;40.97;22.92;;;9.00;81.50;;;;;;5005740;28;20581;-61
2024/02/28 07:11:44;;;;;;;41.88;22.52;;;9.00;81.50;;;;;;5006962;28;20041;-62
2024/02/28 07:14:10;;;;;;;43.50;23.73;;;9.00;81.50;;;;;;5006092;28;20030;-60
2024/02/28 07:16:36;;;;;;;40.80;23.20;;;9.00;81.50;;;;;;5005690;28;20065;-60
2024/02/28 07:19:02;;;;;;;38.78;23.45;;;9.00;81.50;;;;;;5007169;28;20053;-61
2024/02/28 07:21:27;;;;;;;41.40;23.35;;;9.00;81.50;;;;;;5005891;28;20042;-62
2024/02/28 07:23:54;;;;;;;40.55;23.33;;;9.00;81.60;;;;;;5004573;28;20037;-60
2024/02/28 07:26:19;;;;;;;41.58;23.17;;;9.00;81.60;;;;;;5004114;28;20121;-60
2024/02/28 07:28:49;;;;;;;40.55;22.38;;;9.00;81.60;;;;;;5005878;28;20121;-61
2024/02/28 07:31:18;;;;;;;40.00;22.63;;;8.90;81.70;;;;;;5005591;28;20048;-62
2024/02/28 07:33:44;;;;;;;38.08;21.70;;;9.00;81.70;;;;;;5006494;28;20038;-62
2024/02/28 07:36:10;;;;;;;39.80;21.88;;;8.90;81.70;;;;;;5007064;28;20038;-62
2024/02/28 07:38:36;;;;;;;39.45;21.88;;;8.90;81.60;;;;;;5005110;28;20045;-60
2024/02/28 07:41:02;;;;;;;37.72;20.88;;;9.00;81.60;;;;;;5005931;28;20092;-61
2024/02/28 07:43:28;;;;;;;39.22;22.45;;;9.00;81.60;;;;;;5004530;28;20069;-61
2024/02/28 07:45:54;;;;;;;37.53;20.70;;;8.90;81.70;;;;;;5005124;28;20053;-61
2024/02/28 07:48:19;;;;;;;34.88;20.45;;;8.90;81.70;;;;;;5003822;28;20065;-62
2024/02/28 07:50:45;;;;;;;35.75;21.75;;;9.00;81.50;;;;;;5008572;28;20026;-60
2024/02/28 07:53:12;;;;;;;36.90;21.17;;;8.90;81.40;;;;;;5010532;28;20062;-59
2024/02/28 07:55:38;;;;;;;36.08;21.05;;;8.90;81.30;;;;;;4999913;28;20772;-62
2024/02/28 07:58:06;;;;;;;36.25;20.77;;;8.90;81.30;;;;;;5009433;28;20030;-62
2024/02/28 08:00:33;;;;;;;34.78;21.00;;;9.00;81.30;;;;;;5003340;28;20042;-61
2024/02/28 08:02:58;;;;;;;37.47;21.75;;;9.00;81.30;;;;;;5008128;28;20068;-59
2024/02/28 08:05:24;;;;;;;36.88;21.35;;;9.00;81.90;;;;;;5005742;28;20508;-61
2024/02/28 08:07:49;;;;;;;34.65;21.45;;;8.90;81.00;;;;;;5006182;28;20118;-62
2024/02/28 08:10:15;;;;;;;38.30;21.52;;;8.90;80.80;;;;;;5004498;28;20491;-61
2024/02/28 08:12:41;;;;;;;36.92;21.77;;;8.90;80.90;;;;;;5004040;28;20030;-63
2024/02/28 08:15:06;;;;;;;37.45;20.80;;;8.90;81.00;;;;;;5005805;28;20108;-63
2024/02/28 08:17:32;;;;;;;36.70;21.38;;;8.90;81.00;;;;;;5006493;28;20041;-62
2024/02/28 08:19:58;;;;;;;35.90;20.48;;;8.90;80.90;;;;;;5004294;28;20034;-62
2024/02/28 08:22:24;;;;;;;37.53;21.10;;;8.90;81.00;;;;;;5006558;28;20041;-61
2024/02/28 08:24:53;;;;;;;38.38;21.75;;;8.90;81.00;;;;;;5009234;28;20117;-61
2024/02/28 08:27:20;;;;;;;36.47;20.55;;;8.90;81.10;;;;;;5010276;28;20103;-61
2024/02/28 08:29:47;;;;;;;36.42;21.17;;;8.90;81.00;;;;;;5008900;28;20041;-63
2024/02/28 08:32:13;;;;;;;33.92;20.23;;;9.00;81.00;;;;;;5010115;28;20064;-60
2024/02/28 08:34:38;;;;;;;38.33;21.95;;;8.90;80.80;;;;;;5011707;28;20037;-62
2024/02/28 08:37:04;;;;;;;37.60;21.75;;;8.90;80.80;;;;;;5011693;28;20583;-62
2024/02/28 08:39:30;;;;;;;36.22;20.83;;;8.90;80.80;;;;;;5012168;28;20033;-62
2024/02/28 08:41:55;;;;;;;36.92;21.60;;;9.00;80.90;;;;;;5012286;28;20038;-60
2024/02/28 08:44:21;;;;;;;37.75;21.60;;;8.90;81.50;;;;;;5012680;28;20620;-61
2024/02/28 08:46:48;;;;;;;36.90;20.95;;;9.00;80.70;;;;;;5011122;28;20038;-62
2024/02/28 08:49:14;;;;;;;36.78;21.65;;;9.00;80.70;;;;;;5011665;28;20121;-62
2024/02/28 08:51:40;;;;;;;38.10;22.05;;;9.00;80.60;;;;;;5011968;28;20018;-61
2024/02/28 08:54:06;;;;;;;36.53;20.83;;;9.00;80.30;;;;;;5011746;28;20088;-61
2024/02/28 08:56:31;;;;;;;35.20;20.73;;;8.90;80.30;;;;;;5011455;28;20949;-62
2024/02/28 08:58:57;;;;;;;34.80;20.02;;;8.90;80.50;;;;;;5011423;28;20057;-61
2024/02/28 09:01:22;;;;;;;34.42;20.05;;;8.90;80.60;;;;;;5010084;28;20444;-62
2024/02/28 09:03:48;;;;;;;34.70;19.85;;;8.90;81.60;;;;;;5010752;28;20026;-61
2024/02/28 09:06:14;;;;;;;36.35;20.45;;;8.90;80.80;;;;;;5010524;28;20030;-62
2024/02/28 09:08:40;;;;;;;39.20;21.23;;;8.90;80.80;;;;;;5009454;28;20046;-62
2024/02/28 09:11:06;;;;;;;38.50;21.20;;;8.90;80.60;;;;;;5011911;28;20034;-62
2024/02/28 09:13:31;;;;;;;36.72;21.33;;;8.90;80.50;;;;;;5007554;28;20084;-60
2024/02/28 09:15:57;;;;;;;33.72;20.55;;;8.90;80.60;;;;;;5011001;28;20338;-63
2024/02/28 09:18:23;;;;;;;35.00;20.50;;;8.90;80.70;;;;;;5010221;28;20328;-62
2024/02/28 09:20:48;;;;;;;36.38;21.58;;;8.90;80.80;;;;;;5010598;28;20038;-61
2024/02/28 09:23:14;;;;;;;34.92;20.55;;;8.90;80.60;;;;;;5010949;28;20030;-62
2024/02/28 09:25:40;;;;;;;36.45;21.33;;;8.80;80.50;;;;;;5010857;28;20105;-62
2024/02/28 09:28:05;;;;;;;36.28;21.27;;;8.80;80.50;;;;;;5010972;28;20046;-61
2024/02/28 09:30:31;;;;;;;36.90;21.38;;;8.80;80.60;;;;;;5011096;28;20172;-60
2024/02/28 09:32:57;;;;;;;36.85;21.35;;;8.80;81.00;;;;;;5005516;28;20116;-62
2024/02/28 09:35:22;;;;;;;32.65;18.60;;;8.80;81.10;;;;;;5007554;28;20037;-63
2024/02/28 09:37:48;;;;;;;34.25;20.20;;;8.90;81.20;;;;;;5006959;28;20037;-63
2024/02/28 09:40:14;;;;;;;37.53;21.00;;;8.90;81.20;;;;;;5010205;28;20034;-62
2024/02/28 09:42:39;;;;;;;37.40;20.40;;;8.90;81.20;;;;;;5010138;28;20076;-62
2024/02/28 09:45:10;;;;;;;34.42;20.23;;;9.00;81.00;;;;;;5009913;28;20042;-61
2024/02/28 09:47:35;;;;;;;29.70;18.40;;;9.00;81.00;;;;;;5010339;28;20059;-62
2024/02/28 09:50:02;;;;;;;33.00;19.10;;;9.00;81.00;;;;;;5010833;28;20038;-61
2024/02/28 09:52:28;;;;;;;37.35;20.13;;;9.10;81.10;;;;;;5011122;28;20455;-60
2024/02/28 09:54:54;;;;;;;32.45;19.38;;;9.20;80.80;;;;;;5009794;28;20087;-62
2024/02/28 09:57:19;;;;;;;35.95;20.27;;;9.20;80.40;;;;;;5009788;28;20060;-63
2024/02/28 09:59:47;;;;;;;32.95;19.17;;;9.20;79.80;;;;;;5010531;28;20045;-62
2024/02/28 10:02:17;;;;;;;31.00;18.38;;;9.20;80.00;;;;;;5009877;28;20037;-62
2024/02/28 10:04:42;;;;;;;31.45;18.23;;;9.20;80.00;;;;;;5009549;28;20553;-60
2024/02/28 10:07:13;;;;;;;33.03;19.38;;;9.20;79.90;;;;;;5010093;28;20116;-61
2024/02/28 10:09:38;;;;;;;29.45;18.05;;;9.30;79.80;;;;;;5008012;28;20223;-60
2024/02/28 10:12:05;;;;;;;31.05;18.55;;;9.30;79.50;;;;;;5005727;28;20413;-60
2024/02/28 10:14:30;;;;;;;29.40;17.42;;;9.30;79.20;;;;;;5009714;28;20038;-61
2024/02/28 10:16:56;;;;;;;29.95;16.90;;;9.30;79.10;;;;;;5009388;28;20048;-60
2024/02/28 10:19:22;;;;;;;28.02;17.15;;;9.40;79.00;;;;;;5007237;28;20038;-60
2024/02/28 10:21:47;;;;;;;31.48;18.27;;;9.40;78.90;;;;;;5010072;28;20375;-62
2024/02/28 10:24:14;;;;;;;31.52;17.70;;;9.40;78.60;;;;;;5009771;28;20054;-62
2024/02/28 10:26:55;;;;;;;30.67;18.58;;;9.50;78.40;;;;;;5009885;28;20030;-63
2024/02/28 10:29:24;;;;;;;28.80;17.95;;;9.50;78.20;;;;;;5009528;28;20513;-62
2024/02/28 10:31:51;;;;;;;30.80;18.25;;;9.50;78.60;;;;;;5009982;28;20029;-62
2024/02/28 10:34:18;;;;;;;29.08;17.63;;;9.50;78.70;;;;;;5009491;28;20037;-63
2024/02/28 10:36:45;;;;;;;27.95;16.85;;;9.50;78.60;;;;;;5008684;28;20113;-62
2024/02/28 10:39:11;;;;;;;30.50;18.77;;;9.50;78.70;;;;;;5009702;28;20037;-61
2024/02/28 10:41:41;;;;;;;30.23;18.42;;;9.60;78.40;;;;;;5007786;28;20033;-61
2024/02/28 10:44:12;;;;;;;35.05;18.60;;;9.60;77.90;;;;;;5007342;28;20038;-62
2024/02/28 10:46:39;;;;;;;27.60;17.38;;;9.60;77.90;;;;;;5007196;28;20057;-61
2024/02/28 10:49:05;;;;;;;30.92;18.05;;;9.60;78.00;;;;;;5009447;28;20034;-61
2024/02/28 10:51:36;;;;;;;30.95;17.52;;;9.70;78.20;;;;;;5009129;28;20069;-62
2024/02/28 10:54:13;;;;;;;27.98;16.48;;;9.70;78.00;;;;;;5007840;28;20038;-60
2024/02/28 10:56:40;;;;;;;27.92;17.17;;;9.70;77.90;;;;;;5009126;28;20026;-61
2024/02/28 10:59:08;;;;;;;28.88;17.40;;;9.80;78.20;;;;;;5009359;28;20028;-63
2024/02/28 11:01:36;;;;;;;28.85;17.17;;;9.80;78.10;;;;;;5010286;28;20120;-62
2024/02/28 11:04:03;;;;;;;27.77;16.58;;;9.90;78.00;;;;;;5008875;28;20030;-63
2024/02/28 11:06:29;;;;;;;27.73;16.95;;;10.00;78.00;;;;;;5007555;28;20038;-61
2024/02/28 11:08:56;;;;;;;27.90;17.58;;;10.10;78.00;;;;;;5008837;28;20516;-62
2024/02/28 11:11:22;;;;;;;27.73;16.83;;;10.10;77.00;;;;;;5008870;28;20018;-62
2024/02/28 11:14:00;;;;;;;26.52;16.73;;;10.20;77.50;;;;;;5009035;28;20037;-62
2024/02/28 11:16:27;;;;;;;26.45;16.05;;;10.20;77.10;;;;;;5008808;28;20036;-62
2024/02/28 11:18:53;;;;;;;26.95;16.75;;;10.30;77.30;;;;;;5009397;28;20034;-60
2024/02/28 11:21:19;;;;;;;29.20;17.45;;;10.30;77.20;;;;;;5008625;28;20122;-61
2024/02/28 11:23:48;;;;;;;27.20;16.25;;;10.40;77.00;;;;;;5002825;28;20030;-60
2024/02/28 11:26:14;;;;;;;26.48;16.77;;;10.40;76.80;;;;;;5008623;28;20066;-62
2024/02/28 11:28:39;;;;;;;27.10;17.17;;;10.50;76.80;;;;;;5008179;28;20052;-63
2024/02/28 11:31:05;;;;;;;28.25;17.77;;;10.60;76.80;;;;;;5009015;28;20042;-61
2024/02/28 11:33:33;;;;;;;28.38;16.73;;;10.60;76.50;;;;;;5008727;28;20037;-62
2024/02/28 11:35:59;;;;;;;28.85;17.02;;;10.70;76.30;;;;;;5009957;28;20564;-63
2024/02/28 11:38:27;;;;;;;30.75;17.13;;;10.70;76.20;;;;;;5003584;28;20041;-62
2024/02/28 11:40:53;;;;;;;27.95;17.80;;;10.70;76.10;;;;;;5007920;28;20030;-61
2024/02/28 11:43:19;;;;;;;32.00;18.00;;;10.70;76.00;;;;;;5007364;28;20461;-62
2024/02/28 11:45:46;;;;;;;26.77;16.38;;;10.70;75.90;;;;;;5006450;28;20062;-62
2024/02/28 11:48:16;;;;;;;29.00;17.35;;;10.80;76.00;;;;;;5005460;28;20060;-62
2024/02/28 11:50:42;;;;;;;28.65;17.83;;;10.80;76.00;;;;;;5004017;28;20121;-61
2024/02/28 11:53:08;;;;;;;28.98;17.88;;;10.90;75.90;;;;;;5009277;28;20434;-62
2024/02/28 11:55:34;;;;;;;30.52;18.13;;;10.90;75.70;;;;;;5009740;28;20491;-62
2024/02/28 11:58:00;;;;;;;28.60;17.27;;;11.00;75.70;;;;;;5007650;28;20061;-62
2024/02/28 12:00:26;;;;;;;27.63;16.85;;;11.00;75.80;;;;;;5012299;28;20041;-62
2024/02/28 12:02:53;;;;;;;27.35;17.05;;;11.00;75.60;;;;;;5004557;28;20501;-62
2024/02/28 12:05:19;;;;;;;26.80;16.83;;;11.10;76.30;;;;;;5006992;28;20041;-62
2024/02/28 12:07:45;;;;;;;32.28;16.55;;;11.10;75.30;;;;;;5012286;28;20058;-63
2024/02/28 12:10:11;;;;;;;24.63;16.00;;;11.20;75.40;;;;;;5011484;28;20054;-62
2024/02/28 12:12:38;;;;;;;26.05;16.45;;;11.20;75.50;;;;;;5011999;28;20034;-62
2024/02/28 12:15:05;;;;;;;27.45;17.00;;;11.20;75.50;;;;;;5007492;28;20406;-62
2024/02/28 12:17:31;;;;;;;30.15;18.23;;;11.30;75.60;;;;;;5012096;28;20453;-63
2024/02/28 12:20:00;;;;;;;28.90;17.27;;;11.40;75.20;;;;;;5010879;28;20062;-62
2024/02/28 12:22:25;;;;;;;27.15;17.55;;;11.40;75.00;;;;;;5006831;28;20037;-63
2024/02/28 12:24:51;;;;;;;26.20;17.00;;;11.50;74.80;;;;;;5008918;28;20401;-63
2024/02/28 12:27:17;;;;;;;26.10;16.67;;;11.50;74.70;;;;;;5005010;28;20031;-63
2024/02/28 12:29:43;;;;;;;28.45;17.52;;;11.50;74.70;;;;;;5007024;28;20041;-60